Koszta, Iowa
Current Conditions -  °F | °C
As of 5:15 PM on Saturday 25 Oct 2014 (Local Time) from KVTI Reporting Station
Clear Clear  
Wind Chill: 70°   Ceiling: Unl
Heat Index: 70°   Visibility: 10mi
Dew Point: 33°   Wind: 7mph
Humidity: 26%   Direction: 320°NW
Pressure: 30.04"   Gusts: NA
Location:  41.9061°N, 92.1836°W
Report Text: KVTI 252215Z AUTO 32006KT 10SM CLR 21/01 A3004 RMK AO2 T02130008
Loading
Personal Weather Stations






























Interactive Weather Map
Tropical Storm Tracking
New forecast layout! Learn more

10-Day Weather Forecast

Advertisements
Track Severe Weather on mobile